createdAt,value
2023-02-24T00:04:32.313Z,1009.59
2023-02-24T00:09:31.590Z,1009.56
2023-02-24T00:14:32.675Z,1009.61
2023-02-24T00:19:32.891Z,1009.54
2023-02-24T00:24:33.071Z,1009.53
2023-02-24T00:29:35.192Z,1009.49
2023-02-24T00:34:34.318Z,1009.40
2023-02-24T00:39:35.481Z,1009.35
2023-02-24T00:44:36.583Z,1009.31
2023-02-24T00:49:38.705Z,1009.29
2023-02-24T00:54:37.864Z,1009.19
2023-02-24T00:59:40.025Z,1009.22
2023-02-24T01:04:39.173Z,1009.25
2023-02-24T01:09:41.341Z,1009.27
2023-02-24T01:14:40.483Z,1009.25
2023-02-24T01:19:41.595Z,1009.24
2023-02-24T01:24:42.716Z,1009.25
2023-02-24T01:29:45.062Z,1009.23
2023-02-24T01:34:46.239Z,1009.22
2023-02-24T01:39:47.361Z,1009.17
2023-02-24T01:44:46.482Z,1009.12
2023-02-24T01:49:48.640Z,1009.08
2023-02-24T01:54:47.738Z,1009.05
2023-02-24T01:59:48.849Z,1008.94
2023-02-24T02:04:49.980Z,1008.94
2023-02-24T02:09:51.136Z,1008.93
2023-02-24T02:14:53.361Z,1008.86
2023-02-24T02:19:52.472Z,1008.83
2023-02-24T02:24:53.613Z,1008.68
2023-02-24T02:29:54.775Z,1008.74
2023-02-24T02:34:55.888Z,1008.80
2023-02-24T02:39:57.004Z,1008.73
2023-02-24T02:44:58.125Z,1008.70
2023-02-24T02:49:59.269Z,1008.82
2023-02-24T02:55:00.462Z,1008.79
2023-02-24T03:00:02.576Z,1008.78
2023-02-24T03:05:02.770Z,1008.82
2023-02-24T03:10:02.969Z,1008.89
2023-02-24T03:15:02.155Z,1008.75
2023-02-24T03:20:03.341Z,1008.73
2023-02-24T03:25:04.461Z,1008.72
2023-02-24T03:30:05.592Z,1008.57
2023-02-24T03:35:07.744Z,1008.53
2023-02-24T03:40:06.929Z,1008.56
2023-02-24T03:45:08.069Z,1008.48
2023-02-24T03:50:09.172Z,1008.47
2023-02-24T03:55:10.306Z,1008.43
2023-02-24T04:00:11.492Z,1008.49
2023-02-24T04:05:13.614Z,1008.47
2023-02-24T04:10:13.748Z,1008.40
2023-02-24T04:15:12.885Z,1008.40
2023-02-24T04:20:15.197Z,1008.29
2023-02-24T04:25:14.295Z,1008.22
2023-02-24T04:30:15.436Z,1008.15
2023-02-24T04:35:16.590Z,1008.20
2023-02-24T04:40:18.746Z,1008.24
2023-02-24T04:45:17.858Z,1008.19
2023-02-24T04:50:20.140Z,1008.19
2023-02-24T04:55:20.245Z,1008.08
2023-02-24T05:00:19.405Z,1008.04
2023-02-24T05:05:20.578Z,1008.03
2023-02-24T05:10:21.723Z,1008.09
2023-02-24T05:15:22.865Z,1008.02
2023-02-24T05:20:25.017Z,1007.91
2023-02-24T05:25:25.318Z,1007.89
2023-02-24T05:30:25.524Z,1007.83
2023-02-24T05:35:25.676Z,1007.79
2023-02-24T05:40:24.793Z,1007.78
2023-02-24T05:45:25.992Z,1007.74
2023-02-24T05:50:27.103Z,1007.75
2023-02-24T05:55:28.229Z,1007.71
2023-02-24T06:00:30.391Z,1007.76
2023-02-24T06:05:29.511Z,1007.69
2023-02-24T06:10:30.616Z,1007.64
2023-02-24T06:15:31.756Z,1007.72
2023-02-24T06:20:34.864Z,1007.84
2023-02-24T06:25:34.017Z,1007.92
2023-02-24T06:30:35.294Z,1007.91
2023-02-24T06:35:37.477Z,1007.89
2023-02-24T06:40:36.605Z,1007.94
2023-02-24T06:45:37.813Z,1007.97
2023-02-24T06:50:40.589Z,1007.99
2023-02-24T06:55:39.081Z,1008.03
2023-02-24T07:00:41.235Z,1007.98
2023-02-24T07:05:41.423Z,1007.96
2023-02-24T07:10:40.540Z,1007.87
2023-02-24T07:15:42.678Z,1007.71
2023-02-24T07:20:41.784Z,1007.79
2023-02-24T07:25:42.943Z,1007.79
2023-02-24T07:30:44.149Z,1007.72
2023-02-24T07:35:45.362Z,1007.68
2023-02-24T07:40:46.527Z,1007.56
2023-02-24T07:45:47.691Z,1007.50
2023-02-24T07:50:48.904Z,1007.48
2023-02-24T07:55:50.011Z,1007.35
2023-02-24T08:01:36.221Z,1007.27
2023-02-24T08:05:52.448Z,1007.19
2023-02-24T08:10:51.581Z,1007.15
2023-02-24T08:15:53.782Z,1007.05
2023-02-24T08:20:53.044Z,1007.00
2023-02-24T08:25:55.170Z,1006.94
2023-02-24T08:30:56.441Z,1006.83
2023-02-24T08:35:56.582Z,1006.70
2023-02-24T08:40:56.788Z,1006.63
2023-02-24T08:45:56.927Z,1006.66
2023-02-24T08:50:57.060Z,1006.56
2023-02-24T08:55:57.219Z,1006.43
2023-02-24T09:00:57.423Z,1006.43
2023-02-24T09:05:57.576Z,1006.37
2023-02-24T09:10:57.748Z,1006.29
2023-02-24T09:15:57.888Z,1006.19
2023-02-24T09:20:57.025Z,1006.15
2023-02-24T09:25:58.431Z,1006.02
2023-02-24T09:30:59.623Z,1005.99
2023-02-24T09:36:00.731Z,1005.92
2023-02-24T09:41:13.754Z,1005.84
2023-02-24T09:46:02.888Z,1005.83
2023-02-24T09:51:04.764Z,1005.81
2023-02-24T09:56:02.383Z,1005.66
2023-02-24T10:01:03.546Z,1005.66
2023-02-24T10:06:05.772Z,1005.59
2023-02-24T10:11:05.898Z,1005.51
2023-02-24T10:16:06.497Z,1005.52
2023-02-24T10:21:07.283Z,1005.50
2023-02-24T10:26:07.154Z,1005.46
2023-02-24T10:31:07.619Z,1005.49
2023-02-24T10:36:06.765Z,1005.35
2023-02-24T10:41:07.915Z,1005.32
2023-02-24T10:46:09.057Z,1005.31
2023-02-24T10:51:11.168Z,1005.17
2023-02-24T10:56:11.318Z,1005.12
2023-02-24T11:01:11.481Z,1004.97
2023-02-24T11:06:10.609Z,1004.97
2023-02-24T11:11:11.715Z,1004.87
2023-02-24T11:16:12.927Z,1004.72
2023-02-24T11:21:14.045Z,1004.57
2023-02-24T11:26:15.158Z,1004.49
2023-02-24T11:31:16.441Z,1004.37
2023-02-24T11:36:18.582Z,1004.26
2023-02-24T11:41:18.816Z,1004.26
2023-02-24T11:46:19.089Z,1004.18
2023-02-24T11:51:18.310Z,1004.12
2023-02-24T11:56:19.522Z,1004.03
2023-02-24T12:01:21.761Z,1003.91
2023-02-24T12:06:22.154Z,1003.84
2023-02-24T12:11:21.961Z,1003.74
2023-02-24T12:16:21.383Z,1003.76
2023-02-24T12:21:22.895Z,1003.69
2023-02-24T12:26:22.304Z,1003.56
2023-02-24T12:31:25.117Z,1003.58
2023-02-24T12:36:24.439Z,1003.62
2023-02-24T12:41:26.576Z,1003.49
2023-02-24T12:46:25.702Z,1003.50
2023-02-24T12:51:26.833Z,1003.40
2023-02-24T12:56:27.922Z,1003.27
2023-02-24T13:01:29.129Z,1003.21
2023-02-24T13:06:30.294Z,1003.13
2023-02-24T13:11:31.492Z,1003.07
2023-02-24T13:16:32.761Z,1002.98
2023-02-24T13:21:33.968Z,1002.89
2023-02-24T13:26:36.106Z,1002.81
2023-02-24T13:31:35.299Z,1002.82
2023-02-24T13:36:38.504Z,1002.68
2023-02-24T13:41:38.682Z,1002.60
2023-02-24T13:46:37.852Z,1002.52
2023-02-24T13:51:39.097Z,1002.40
2023-02-24T13:56:40.211Z,1002.34
2023-02-24T14:01:41.406Z,1002.31
2023-02-24T14:06:43.713Z,1002.26
2023-02-24T14:11:42.870Z,1002.13
2023-02-24T14:16:44.332Z,1002.11
2023-02-24T14:21:47.483Z,1001.99
2023-02-24T14:26:46.647Z,1001.93
2023-02-24T14:31:47.971Z,1001.84
2023-02-24T14:36:49.269Z,1001.73
2023-02-24T14:41:50.590Z,1001.75
2023-02-24T14:46:52.815Z,1001.68
2023-02-24T14:51:51.914Z,1001.62
2023-02-24T14:56:54.060Z,1001.62
2023-02-24T15:01:53.323Z,1001.55
2023-02-24T15:06:54.530Z,1001.52
2023-02-24T15:11:55.649Z,1001.54
2023-02-24T15:16:56.822Z,1001.45
2023-02-24T15:21:58.041Z,1001.39
2023-02-24T15:26:59.249Z,1001.27
2023-02-24T15:32:01.503Z,1001.20
2023-02-24T15:37:00.737Z,1001.20
2023-02-24T15:42:01.909Z,1001.28
2023-02-24T15:47:06.962Z,1001.21
2023-02-24T15:52:03.137Z,1001.16
2023-02-24T15:57:04.379Z,1001.12
2023-02-24T16:02:07.508Z,1001.04
2023-02-24T16:07:07.633Z,1001.08
2023-02-24T16:12:07.880Z,1000.96
2023-02-24T16:17:08.005Z,1001.01
2023-02-24T16:22:08.151Z,1001.06
2023-02-24T16:27:07.549Z,1001.08
2023-02-24T16:32:07.128Z,1001.12
2023-02-24T16:37:06.447Z,1001.19
2023-02-24T16:42:07.808Z,1001.17
2023-02-24T16:47:10.269Z,1001.23
2023-02-24T16:52:09.729Z,1001.23
2023-02-24T16:57:10.141Z,1001.35
2023-02-24T17:02:09.558Z,1001.37
2023-02-24T17:07:10.934Z,1001.29
2023-02-24T17:12:12.476Z,1001.20
2023-02-24T17:17:11.944Z,1001.28
2023-02-24T17:22:11.451Z,1001.32
2023-02-24T17:27:14.887Z,1001.28
2023-02-24T17:32:12.528Z,1001.30
2023-02-24T17:37:11.904Z,1001.29
2023-02-24T17:42:13.101Z,1001.30
2023-02-24T17:47:15.465Z,1001.54
2023-02-24T17:52:14.700Z,1001.85
2023-02-24T17:57:16.136Z,1002.01
2023-02-24T18:02:15.526Z,1002.16
2023-02-24T18:07:16.782Z,1002.15
2023-02-24T18:12:18.954Z,1002.16
2023-02-24T18:17:17.129Z,1002.38
2023-02-24T18:22:18.344Z,1002.31
2023-02-24T18:27:19.601Z,1002.35
2023-02-24T18:32:21.240Z,1002.60
2023-02-24T18:37:21.816Z,1002.72
2023-02-24T18:42:21.285Z,1002.25
2023-02-24T18:47:22.736Z,1002.39
2023-02-24T18:52:21.999Z,1002.15
2023-02-24T18:57:23.390Z,1001.93
2023-02-24T19:02:25.805Z,1001.88
2023-02-24T19:07:25.269Z,1001.77
2023-02-24T19:12:26.747Z,1001.67
2023-02-24T19:17:26.964Z,1001.41
2023-02-24T19:22:26.341Z,1001.37
2023-02-24T19:27:26.737Z,1001.46
2023-02-24T19:32:28.236Z,1001.54
2023-02-24T19:37:25.779Z,1001.57
2023-02-24T19:42:26.939Z,1001.65
2023-02-24T19:47:26.084Z,1001.80
2023-02-24T19:52:27.444Z,1001.85
2023-02-24T19:57:28.699Z,1001.84
2023-02-24T20:02:31.080Z,1001.89
2023-02-24T20:07:30.507Z,1001.75
2023-02-24T20:12:32.026Z,1001.65
2023-02-24T20:17:42.679Z,1001.62
2023-02-24T20:22:32.019Z,1001.64
2023-02-24T20:27:33.338Z,1001.58
2023-02-24T20:32:48.030Z,1001.66
2023-02-24T20:37:35.783Z,1001.77
2023-02-24T20:42:35.213Z,1001.98
2023-02-24T20:47:38.658Z,1002.18
2023-02-24T20:52:37.867Z,1002.19
2023-02-24T20:57:39.970Z,1002.21
2023-02-24T21:02:40.376Z,1002.09
2023-02-24T21:07:39.898Z,1002.07
2023-02-24T21:12:39.181Z,1002.13
2023-02-24T21:17:40.510Z,1002.01
2023-02-24T21:23:02.659Z,1001.87
2023-02-24T21:27:41.835Z,1001.88
2023-02-24T21:32:43.125Z,1001.82
2023-02-24T21:37:44.246Z,1001.67
2023-02-24T21:42:45.351Z,1001.53
2023-02-24T21:47:47.509Z,1001.51
2023-02-24T21:52:48.601Z,1001.53
2023-02-24T21:57:47.753Z,1001.85
2023-02-24T22:02:48.952Z,1001.80
2023-02-24T22:07:51.095Z,1001.59
2023-02-24T22:12:50.233Z,1001.67
2023-02-24T22:17:51.360Z,1001.61
2023-02-24T22:22:53.454Z,1001.65
2023-02-24T22:27:52.559Z,1001.56
2023-02-24T22:32:53.705Z,1001.54
2023-02-24T22:37:55.880Z,1001.45
2023-02-24T22:42:54.987Z,1001.66
2023-02-24T22:47:56.115Z,1001.83
2023-02-24T22:52:58.281Z,1001.87
2023-02-24T22:57:59.417Z,1002.00
2023-02-24T23:02:58.580Z,1001.93
2023-02-24T23:07:59.724Z,1001.85
2023-02-24T23:12:59.874Z,1002.18
2023-02-24T23:18:01.016Z,1001.99
2023-02-24T23:23:02.302Z,1001.72
2023-02-24T23:28:02.500Z,1001.55
2023-02-24T23:33:03.684Z,1001.97
2023-02-24T23:38:04.830Z,1002.27
2023-02-24T23:43:06.009Z,1002.08
2023-02-24T23:48:09.107Z,1001.83
2023-02-24T23:53:09.195Z,1002.12
2023-02-24T23:58:08.421Z,1002.68
